Time;durP1;ratioP1;P1;durP2;ratioP2;P2;SDS_P1;SDS_P2;PMS_P1;PMS_P2;Temp;Humidity;BMP_temperature;BMP_pressure;BME280_temperature;BME280_humidity;BME280_pressure;Samples;Min_cycle;Max_cycle;Signal;HPM_P1;HPM_P2
2022/05/21 00:01:41;;;;;;;13.40;5.97;;;10.20;99.90;;;;;;5128410;27;20061;-86
2022/05/21 00:04:22;;;;;;;11.68;5.57;;;10.10;99.90;;;;;;5109895;27;20046;-85
2022/05/21 00:06:58;;;;;;;17.80;5.90;;;10.20;99.90;;;;;;5127987;27;20046;-86
2022/05/21 00:09:25;;;;;;;14.55;5.32;;;10.40;99.90;;;;;;5126801;27;20051;-85
2022/05/21 00:11:54;;;;;;;15.65;6.13;;;10.40;99.90;;;;;;5110965;28;20051;-86
2022/05/21 00:14:20;;;;;;;15.38;6.03;;;10.30;99.90;;;;;;5109772;28;20050;-86
2022/05/21 00:16:48;;;;;;;14.23;6.25;;;10.30;99.90;;;;;;5110341;28;20058;-86
2022/05/21 00:19:23;;;;;;;15.82;6.95;;;10.30;99.90;;;;;;5110446;28;20067;-86
2022/05/21 00:21:48;;;;;;;15.27;6.97;;;10.30;99.90;;;;;;5110969;28;20043;-85
2022/05/21 00:24:14;;;;;;;21.20;6.90;;;10.30;99.90;;;;;;5109819;28;20069;-86
2022/05/21 00:26:40;;;;;;;17.38;7.18;;;10.30;99.90;;;;;;5110543;28;20062;-86
2022/05/21 00:29:09;;;;;;;18.80;7.57;;;10.30;99.90;;;;;;5127265;28;20046;-85
2022/05/21 00:31:42;;;;;;;20.52;7.85;;;10.30;99.90;;;;;;5110480;28;20057;-86
2022/05/21 00:34:08;;;;;;;22.45;8.43;;;10.40;99.90;;;;;;5125793;28;20067;-85
2022/05/21 00:36:34;;;;;;;20.70;8.48;;;10.50;99.90;;;;;;5106856;28;20127;-86
2022/05/21 00:38:59;;;;;;;16.25;8.40;;;10.40;99.90;;;;;;5106767;28;20077;-86
2022/05/21 00:41:25;;;;;;;20.45;8.60;;;10.50;99.90;;;;;;5106812;28;20044;-86
2022/05/21 00:43:56;;;;;;;21.17;8.55;;;11.10;99.90;;;;;;5091666;28;20052;-85
2022/05/21 00:46:25;;;;;;;27.80;9.57;;;10.50;99.90;;;;;;5110831;28;20557;-85
2022/05/21 00:49:17;;;;;;;20.77;8.23;;;10.50;99.90;;;;;;5093741;28;20051;-85
2022/05/21 00:51:44;;;;;;;16.13;8.48;;;10.50;99.90;;;;;;5094096;28;20047;-85
2022/05/21 00:54:13;;;;;;;23.17;8.30;;;10.40;99.90;;;;;;5093189;28;20043;-85
2022/05/21 00:56:43;;;;;;;21.05;8.93;;;10.50;99.90;;;;;;5094387;28;20398;-85
2022/05/21 01:02:01;;;;;;;26.05;10.77;;;10.60;99.90;;;;;;5111192;28;20083;-85
2022/05/21 01:04:39;;;;;;;20.42;10.45;;;10.50;99.90;;;;;;5093690;28;20079;-85
2022/05/21 01:07:06;;;;;;;21.67;11.32;;;10.60;99.90;;;;;;5109680;28;20087;-85
2022/05/21 01:09:33;;;;;;;21.00;12.68;;;10.50;99.90;;;;;;5093019;28;20056;-85
2022/05/21 01:12:02;;;;;;;30.15;14.90;;;10.50;99.90;;;;;;5110831;28;20079;-85
2022/05/21 01:14:29;;;;;;;23.10;15.15;;;10.70;99.90;;;;;;5092480;28;20040;-85
2022/05/21 01:16:55;;;;;;;29.92;15.57;;;10.60;99.90;;;;;;5094023;28;20675;-85
2022/05/21 01:19:53;;;;;;;32.47;15.93;;;10.60;99.90;;;;;;5108755;28;20502;-85
2022/05/21 01:22:26;;;;;;;35.92;18.17;;;10.60;99.90;;;;;;5110001;28;20052;-85
2022/05/21 01:24:51;;;;;;;35.45;18.05;;;10.70;99.90;;;;;;5110224;28;20472;-84
2022/05/21 01:27:20;;;;;;;32.58;18.10;;;10.70;99.90;;;;;;5092637;28;20043;-85
2022/05/21 01:30:00;;;;;;;40.25;18.05;;;10.70;99.90;;;;;;5109864;28;20043;-86
2022/05/21 01:32:46;;;;;;;35.03;18.30;;;10.50;99.90;;;;;;5093046;28;20384;-85
2022/05/21 01:35:16;;;;;;;33.10;17.83;;;10.70;99.90;;;;;;5091882;28;20075;-85
2022/05/21 01:37:42;;;;;;;35.17;19.27;;;10.80;99.90;;;;;;5093449;28;20188;-85
2022/05/21 01:40:09;;;;;;;40.15;20.33;;;10.80;99.90;;;;;;5092435;28;20122;-85
2022/05/21 01:44:37;;;;;;;37.47;20.17;;;10.80;99.90;;;;;;5109753;28;20051;-85
2022/05/21 01:45:29;;;;;;;40.25;20.35;;;10.90;99.90;;;;;;5108895;28;20048;-85
2022/05/21 01:47:55;;;;;;;40.22;21.05;;;11.00;99.90;;;;;;5092890;28;20055;-85
2022/05/21 01:50:21;;;;;;;42.47;20.83;;;11.10;99.90;;;;;;5092914;28;20039;-86
2022/05/21 01:52:46;;;;;;;41.78;21.80;;;11.10;99.90;;;;;;5085783;22;20064;-85
2022/05/21 01:55:25;;;;;;;41.78;20.73;;;11.10;99.90;;;;;;5031319;28;20195;-85
2022/05/21 01:57:59;;;;;;;38.58;22.60;;;11.10;99.90;;;;;;5032369;28;20037;-85
2022/05/21 02:00:25;;;;;;;40.33;22.77;;;11.20;99.90;;;;;;5032567;28;20454;-86
2022/05/21 02:02:51;;;;;;;40.05;22.45;;;11.20;99.90;;;;;;5032432;28;20498;-86
2022/05/21 02:05:17;;;;;;;48.53;24.17;;;11.20;99.90;;;;;;5032407;28;20133;-86
2022/05/21 02:07:42;;;;;;;50.10;24.75;;;11.30;99.90;;;;;;5032888;28;20041;-85
2022/05/21 02:10:12;;;;;;;47.30;23.75;;;11.30;99.90;;;;;;5048748;28;20049;-85
2022/05/21 02:12:39;;;;;;;48.53;25.52;;;11.40;99.90;;;;;;5048824;28;20469;-86
2022/05/21 02:15:06;;;;;;;43.38;24.92;;;11.40;99.90;;;;;;5049153;28;20052;-86
2022/05/21 02:17:32;;;;;;;48.50;27.15;;;11.50;99.90;;;;;;5032129;28;20049;-86
2022/05/21 02:20:04;;;;;;;45.17;25.98;;;11.50;99.90;;;;;;5032816;28;20036;-86
2022/05/21 02:22:59;;;;;;;51.15;27.27;;;11.60;99.90;;;;;;5048714;28;20084;-86
2022/05/21 02:25:25;;;;;;;48.95;28.00;;;11.60;99.90;;;;;;5026000;28;20068;-86
2022/05/21 02:28:00;;;;;;;51.60;28.33;;;11.70;99.90;;;;;;5031381;28;20061;-86
2022/05/21 02:30:26;;;;;;;49.05;28.73;;;11.70;99.90;;;;;;5031731;28;20053;-85
2022/05/21 02:32:52;;;;;;;49.80;29.20;;;11.70;99.90;;;;;;5049052;28;20052;-84
2022/05/21 02:35:18;;;;;;;55.75;31.23;;;11.70;99.90;;;;;;5036789;28;20083;-85
2022/05/21 02:40:30;;;;;;;49.83;29.40;;;11.80;99.90;;;;;;5028409;28;20050;-85
2022/05/21 02:42:55;;;;;;;51.10;29.05;;;12.10;99.90;;;;;;5028408;28;20814;-84
2022/05/21 02:45:25;;;;;;;63.55;29.85;;;11.90;99.90;;;;;;5010558;28;20045;-85
2022/05/21 02:47:51;;;;;;;59.45;30.25;;;11.90;99.90;;;;;;5028196;28;20053;-84
2022/05/21 02:50:22;;;;;;;63.78;29.75;;;11.90;99.90;;;;;;5011896;28;20052;-86
2022/05/21 02:52:48;;;;;;;61.10;31.10;;;12.00;99.90;;;;;;5011460;28;20057;-85
2022/05/21 02:55:15;;;;;;;60.90;31.90;;;12.00;99.90;;;;;;5010880;28;20118;-86
2022/05/21 02:57:42;;;;;;;62.20;29.80;;;12.00;99.90;;;;;;5026985;28;20045;-85
2022/05/21 03:00:12;;;;;;;51.97;26.55;;;12.00;99.90;;;;;;5027903;28;20153;-85
2022/05/21 03:02:39;;;;;;;55.10;26.42;;;12.00;99.90;;;;;;5011709;28;20049;-85
2022/05/21 03:05:06;;;;;;;57.28;27.13;;;12.00;99.90;;;;;;5026765;28;20045;-85
2022/05/21 03:07:47;;;;;;;53.97;25.40;;;12.10;99.90;;;;;;5010527;28;20053;-85
2022/05/21 03:10:34;;;;;;;52.15;24.98;;;12.10;99.90;;;;;;5011407;28;20139;-85
2022/05/21 03:13:02;;;;;;;47.75;23.85;;;12.10;99.90;;;;;;5027020;28;20447;-85
2022/05/21 03:15:36;;;;;;;46.33;22.23;;;12.10;99.90;;;;;;5011517;28;20186;-86
2022/05/21 03:18:17;;;;;;;43.75;20.17;;;12.00;99.90;;;;;;5011417;28;20754;-85
2022/05/21 03:20:43;;;;;;;42.40;17.15;;;12.20;99.90;;;;;;5010894;28;20409;-85
2022/05/21 03:23:10;;;;;;;44.42;16.85;;;12.20;99.90;;;;;;5010982;28;20042;-85
2022/05/21 03:25:44;;;;;;;35.45;15.57;;;12.30;99.90;;;;;;5028522;28;20144;-88
2022/05/21 03:28:22;;;;;;;38.58;15.23;;;12.10;99.90;;;;;;5010635;28;20056;-86
2022/05/21 03:30:50;;;;;;;36.28;12.02;;;12.30;99.90;;;;;;5011172;28;20518;-86
2022/05/21 03:33:16;;;;;;;34.75;11.77;;;12.40;99.90;;;;;;5010387;28;20480;-85
2022/05/21 03:35:42;;;;;;;37.13;11.95;;;12.40;99.90;;;;;;5027568;28;20053;-85
2022/05/21 03:38:10;;;;;;;43.30;11.52;;;12.30;99.90;;;;;;5010670;28;20396;-86
2022/05/21 03:40:35;;;;;;;38.03;10.05;;;12.50;99.90;;;;;;5010565;28;20044;-85
2022/05/21 03:43:01;;;;;;;28.27;8.93;;;12.40;99.90;;;;;;5026522;28;20045;-86
2022/05/21 03:45:30;;;;;;;34.90;7.75;;;12.40;99.90;;;;;;5027679;28;20068;-85
2022/05/21 03:48:06;;;;;;;37.63;8.32;;;12.60;99.90;;;;;;5009852;28;20140;-85
2022/05/21 03:50:35;;;;;;;32.75;8.57;;;12.50;99.90;;;;;;5059389;23;20049;-87
2022/05/21 03:54:02;;;;;;;30.15;6.97;;;12.50;99.90;;;;;;5067607;28;20059;-86
2022/05/21 03:55:59;;;;;;;39.47;6.97;;;12.50;99.90;;;;;;5057875;28;20080;-85
2022/05/21 03:58:37;;;;;;;28.70;7.22;;;12.60;99.90;;;;;;5066125;28;20114;-86
2022/05/21 04:01:03;;;;;;;27.63;6.78;;;12.60;99.90;;;;;;5048696;28;20446;-85
2022/05/21 04:03:33;;;;;;;34.13;6.93;;;12.70;99.90;;;;;;5067177;28;20045;-86
2022/05/21 04:06:08;;;;;;;32.80;6.53;;;12.50;99.90;;;;;;5061890;28;20045;-85
2022/05/21 04:08:34;;;;;;;24.80;6.18;;;12.60;99.90;;;;;;5045745;28;20045;-85
2022/05/21 04:11:01;;;;;;;28.40;6.45;;;12.70;99.90;;;;;;5030636;28;20151;-85
2022/05/21 04:13:32;;;;;;;31.38;5.82;;;12.70;99.90;;;;;;5029804;28;20099;-86
2022/05/21 04:16:15;;;;;;;29.85;5.18;;;12.80;99.90;;;;;;5030010;28;20481;-86
2022/05/21 04:18:41;;;;;;;;;;;12.80;99.90;;;;;;5047577;28;20032;-86
2022/05/21 04:21:07;;;;;;;24.95;5.72;;;12.80;99.90;;;;;;5046642;28;20386;-86
2022/05/21 04:23:35;;;;;;;26.75;5.80;;;12.80;99.90;;;;;;5046915;28;20049;-86
2022/05/21 04:26:01;;;;;;;21.20;4.85;;;12.80;99.90;;;;;;5047430;28;20048;-85
2022/05/21 04:28:27;;;;;;;20.65;5.10;;;12.90;99.90;;;;;;5046681;28;20049;-84
2022/05/21 04:31:01;;;;;;;23.52;4.57;;;12.90;99.90;;;;;;5030213;28;20041;-87
2022/05/21 04:33:30;;;;;;;23.02;5.38;;;12.90;99.90;;;;;;5047383;28;20049;-86
2022/05/21 04:38:41;;;;;;;16.48;4.03;;;12.90;99.90;;;;;;5047887;28;20092;-86
2022/05/21 04:41:16;;;;;;;15.93;4.00;;;12.90;99.90;;;;;;5029817;28;20045;-86
2022/05/21 04:43:44;;;;;;;17.30;4.60;;;13.00;99.90;;;;;;5029169;28;20055;-86
2022/05/21 04:46:11;;;;;;;25.25;4.63;;;13.00;99.90;;;;;;5030048;28;20056;-86
2022/05/21 04:48:49;;;;;;;21.85;4.43;;;13.10;99.90;;;;;;5047601;28;20094;-86
2022/05/21 04:51:27;;;;;;;;;;;;;;;;;;;;;
2022/05/21 04:53:59;;;;;;;24.27;4.47;;;13.10;99.90;;;;;;5059263;22;20486;-86
2022/05/21 04:56:25;;;;;;;25.83;3.83;;;13.10;99.90;;;;;;5027684;28;20049;-86
2022/05/21 04:59:00;;;;;;;20.58;3.80;;;13.00;99.90;;;;;;5045239;22;20043;-86
2022/05/21 05:01:51;;;;;;;19.85;3.45;;;13.00;99.90;;;;;;5049231;28;20412;-86
2022/05/21 05:04:17;;;;;;;19.77;3.55;;;13.10;99.90;;;;;;5048776;28;20152;-86
2022/05/21 05:09:22;;;;;;;20.88;3.80;;;13.10;99.90;;;;;;5110802;22;20051;-86
2022/05/21 05:11:52;;;;;;;19.25;3.88;;;13.10;99.90;;;;;;5088690;28;20035;-86
2022/05/21 05:14:19;;;;;;;18.58;3.28;;;13.10;99.90;;;;;;5089266;28;20040;-86
2022/05/21 05:16:45;;;;;;;18.65;3.75;;;13.10;99.90;;;;;;5090259;28;20661;-85
2022/05/21 05:19:11;;;;;;;16.15;2.88;;;13.10;99.90;;;;;;5105619;28;20055;-86
2022/05/21 05:21:37;;;;;;;23.17;3.38;;;13.10;99.90;;;;;;5089486;28;20048;-86
2022/05/21 05:24:06;;;;;;;17.33;2.65;;;13.20;99.90;;;;;;5097466;22;20063;-86
2022/05/21 05:26:31;;;;;;;15.52;3.47;;;13.30;99.90;;;;;;5070289;28;20147;-86
2022/05/21 05:28:57;;;;;;;20.83;3.67;;;13.30;99.90;;;;;;5063773;28;20185;-86
2022/05/21 05:31:26;;;;;;;17.40;3.45;;;13.30;99.90;;;;;;5085204;28;20115;-86
2022/05/21 05:33:52;;;;;;;15.38;3.42;;;13.60;99.90;;;;;;5065564;28;20117;-86
2022/05/21 05:36:17;;;;;;;24.92;3.53;;;13.40;99.90;;;;;;5062987;28;20488;-86
2022/05/21 05:38:43;;;;;;;18.50;2.90;;;13.50;99.90;;;;;;5077886;28;20129;-86
2022/05/21 05:41:09;;;;;;;15.35;2.88;;;13.50;99.90;;;;;;5062886;28;20043;-87
2022/05/21 05:43:35;;;;;;;18.77;3.05;;;13.50;99.90;;;;;;5081251;28;20040;-86
2022/05/21 05:46:01;;;;;;;16.67;3.05;;;13.50;99.90;;;;;;5063988;28;20492;-86
2022/05/21 05:48:28;;;;;;;13.27;2.55;;;13.60;99.90;;;;;;5059560;28;20052;-86
2022/05/21 05:50:55;;;;;;;18.33;2.78;;;13.60;99.90;;;;;;5079760;28;20071;-86
2022/05/21 05:53:26;;;;;;;20.73;3.45;;;13.70;99.90;;;;;;5084976;28;20052;-85
2022/05/21 05:55:52;;;;;;;22.05;3.38;;;13.70;99.90;;;;;;5064991;28;20044;-88
2022/05/21 06:01:13;;;;;;;13.45;2.85;;;13.90;99.90;;;;;;5077665;28;20056;-86
2022/05/21 06:03:39;;;;;;;19.23;3.55;;;13.70;99.90;;;;;;5061729;28;20119;-86
2022/05/21 06:06:05;;;;;;;16.75;3.28;;;13.70;99.90;;;;;;5076957;28;20123;-88
2022/05/21 06:08:31;;;;;;;14.60;2.90;;;13.80;99.90;;;;;;5061675;28;20486;-86
2022/05/21 06:10:56;;;;;;;17.55;2.88;;;13.80;99.90;;;;;;5060178;28;20044;-85
2022/05/21 06:13:22;;;;;;;18.70;2.97;;;13.90;99.90;;;;;;5060424;28;20140;-85
2022/05/21 06:15:48;;;;;;;16.42;3.20;;;13.90;99.90;;;;;;5078004;28;20526;-85
2022/05/21 06:18:16;;;;;;;16.27;3.00;;;14.00;99.90;;;;;;5059479;28;20123;-85
2022/05/21 06:20:46;;;;;;;16.20;2.85;;;14.00;99.90;;;;;;5079470;28;20044;-86
2022/05/21 06:23:17;;;;;;;17.85;2.85;;;14.00;99.90;;;;;;5073874;28;20487;-86
2022/05/21 06:25:43;;;;;;;14.50;2.80;;;14.20;99.90;;;;;;5077166;28;20044;-86
2022/05/21 06:28:09;;;;;;;18.08;2.97;;;14.30;99.90;;;;;;5082238;28;20044;-85
2022/05/21 06:30:37;;;;;;;16.98;3.20;;;14.30;99.90;;;;;;5078061;28;20048;-85
2022/05/21 06:33:15;;;;;;;19.98;3.28;;;14.30;99.90;;;;;;5062023;28;20049;-86
2022/05/21 06:35:40;;;;;;;15.13;3.13;;;14.40;99.90;;;;;;5080444;28;20035;-86
2022/05/21 06:38:07;;;;;;;15.18;2.65;;;14.40;99.90;;;;;;5066006;28;20079;-86
2022/05/21 06:40:44;;;;;;;18.63;2.92;;;14.40;99.90;;;;;;5088222;28;20032;-87
2022/05/21 06:43:25;;;;;;;14.77;2.60;;;14.30;99.90;;;;;;5064610;28;20134;-86
2022/05/21 06:45:51;;;;;;;16.13;3.17;;;14.30;99.90;;;;;;5065475;28;20050;-86
2022/05/21 06:48:16;;;;;;;19.75;3.17;;;14.20;99.90;;;;;;5067879;28;20044;-86
2022/05/21 06:50:42;;;;;;;19.52;2.88;;;14.40;99.90;;;;;;5067087;28;20044;-86
2022/05/21 06:53:08;;;;;;;19.05;2.75;;;14.50;99.90;;;;;;5086945;28;20044;-86
2022/05/21 06:55:34;;;;;;;15.80;3.10;;;14.70;99.90;;;;;;5081104;28;20033;-84
2022/05/21 06:58:00;;;;;;;16.65;2.65;;;14.80;99.90;;;;;;5085101;28;20055;-87
2022/05/21 07:00:25;;;;;;;19.70;3.47;;;14.90;99.90;;;;;;5080688;28;20044;-88
2022/05/21 07:02:54;;;;;;;17.83;2.70;;;14.90;99.90;;;;;;5078533;28;20039;-90
2022/05/21 07:08:21;;;;;;;14.18;2.80;;;14.70;99.90;;;;;;5087312;28;20048;-88
2022/05/21 07:10:47;;;;;;;17.33;2.47;;;14.60;99.90;;;;;;5066915;28;20071;-87
2022/05/21 07:13:13;;;;;;;14.85;3.15;;;14.50;99.90;;;;;;5069623;28;20047;-88
2022/05/21 07:15:39;;;;;;;15.68;2.97;;;14.70;99.90;;;;;;5088124;28;20402;-88
2022/05/21 07:18:05;;;;;;;18.60;3.30;;;14.80;99.90;;;;;;5070109;28;20045;-87
2022/05/21 07:20:31;;;;;;;19.10;2.78;;;15.00;99.90;;;;;;5087854;28;20043;-86
2022/05/21 07:22:57;;;;;;;14.52;3.58;;;15.20;99.90;;;;;;5070230;28;20481;-87
2022/05/21 07:25:27;;;;;;;13.25;2.85;;;15.30;99.90;;;;;;5086039;28;20063;-86
2022/05/21 07:27:53;;;;;;;10.43;2.60;;;15.30;99.90;;;;;;5069580;28;20505;-86
2022/05/21 07:30:19;;;;;;;15.38;2.17;;;15.30;99.90;;;;;;5086719;28;20044;-87
2022/05/21 07:32:45;;;;;;;13.88;3.30;;;15.30;99.90;;;;;;5070957;28;20040;-86
2022/05/21 07:35:13;;;;;;;14.70;2.58;;;15.30;99.90;;;;;;5066412;28;20120;-87
2022/05/21 07:37:40;;;;;;;12.73;2.80;;;15.30;99.90;;;;;;5067197;28;20235;-87
2022/05/21 07:40:07;;;;;;;15.82;2.75;;;15.20;99.90;;;;;;5049678;28;20036;-87
2022/05/21 07:42:33;;;;;;;12.43;2.40;;;15.30;99.90;;;;;;5050081;28;20060;-87
2022/05/21 07:44:59;;;;;;;17.60;2.35;;;15.50;99.90;;;;;;5049523;28;20036;-87
2022/05/21 07:47:25;;;;;;;10.82;2.15;;;15.60;99.90;;;;;;5065688;28;20044;-87
2022/05/21 07:49:56;;;;;;;20.92;4.07;;;15.90;99.90;;;;;;5050543;28;20423;-87
2022/05/21 07:52:23;;;;;;;14.88;2.72;;;16.00;99.90;;;;;;5068611;28;20504;-85
2022/05/21 07:54:48;;;;;;;18.98;3.08;;;16.10;99.90;;;;;;5068100;28;20400;-85
2022/05/21 07:57:14;;;;;;;14.88;2.90;;;16.00;99.90;;;;;;5067550;28;20037;-85
2022/05/21 07:59:40;;;;;;;19.55;3.22;;;16.10;99.90;;;;;;5065303;28;20501;-85
2022/05/21 08:02:11;;;;;;;14.43;2.25;;;16.00;99.90;;;;;;5065639;28;20056;-85
2022/05/21 08:04:37;;;;;;;15.55;2.97;;;15.80;99.90;;;;;;5065819;28;20403;-84
2022/05/21 08:07:03;;;;;;;15.10;2.42;;;15.80;99.90;;;;;;5049333;28;20109;-84
2022/05/21 08:09:28;;;;;;;13.82;2.53;;;15.90;99.90;;;;;;5049337;28;20044;-84
2022/05/21 08:11:54;;;;;;;14.55;2.47;;;15.90;99.90;;;;;;5066438;28;20381;-85
2022/05/21 08:14:20;;;;;;;15.60;2.17;;;16.00;99.90;;;;;;5064305;28;20369;-84
2022/05/21 08:16:46;;;;;;;16.00;2.63;;;16.20;99.90;;;;;;5049543;28;20040;-84
2022/05/21 08:19:13;;;;;;;17.95;2.80;;;16.10;99.90;;;;;;5065772;28;20972;-84
2022/05/21 08:21:39;;;;;;;13.60;2.85;;;16.00;99.90;;;;;;5065504;28;20084;-84
2022/05/21 08:26:56;;;;;;;19.33;2.67;;;16.20;99.90;;;;;;5066199;28;20052;-84
2022/05/21 08:29:23;;;;;;;15.93;2.70;;;16.50;99.90;;;;;;5063870;28;20041;-84
2022/05/21 08:31:48;;;;;;;11.95;2.20;;;16.60;99.90;;;;;;5049745;28;20075;-84
2022/05/21 08:34:14;;;;;;;10.52;2.33;;;16.60;99.90;;;;;;5048788;28;20480;-84
2022/05/21 08:36:40;;;;;;;14.52;2.47;;;16.50;99.90;;;;;;5065462;28;20045;-84
2022/05/21 08:39:06;;;;;;;10.77;2.28;;;16.50;99.90;;;;;;5049117;28;20041;-84
2022/05/21 08:41:34;;;;;;;11.98;2.50;;;16.40;99.90;;;;;;5065671;28;20083;-84
2022/05/21 08:44:02;;;;;;;20.10;2.65;;;16.40;99.90;;;;;;5064617;28;20055;-84
2022/05/21 08:46:42;;;;;;;14.90;2.72;;;16.40;99.90;;;;;;5065489;28;20094;-84
2022/05/21 08:49:18;;;;;;;12.20;2.35;;;16.60;99.90;;;;;;5048904;28;20255;-84
2022/05/21 08:51:50;;;;;;;14.02;2.72;;;16.80;99.90;;;;;;5066372;28;20074;-85
2022/05/21 08:54:22;;;;;;;17.73;2.38;;;16.90;99.90;;;;;;5065644;28;20110;-84
2022/05/21 08:56:50;;;;;;;12.52;2.50;;;16.80;99.90;;;;;;5061870;28;20052;-84
2022/05/21 08:59:19;;;;;;;13.75;2.65;;;16.90;99.90;;;;;;5064682;28;20076;-84
2022/05/21 09:01:47;;;;;;;17.88;3.35;;;17.20;99.90;;;;;;5065800;28;20372;-84
2022/05/21 09:04:14;;;;;;;13.48;2.22;;;17.40;99.90;;;;;;5064702;28;20466;-84
2022/05/21 09:07:04;;;;;;;11.02;2.10;;;17.60;99.90;;;;;;5069144;28;20084;-84
2022/05/21 09:10:03;;;;;;;11.77;2.28;;;17.70;99.90;;;;;;5070129;28;20126;-84
2022/05/21 09:12:42;;;;;;;15.68;2.25;;;17.60;99.90;;;;;;5068764;28;20101;-84
2022/05/21 09:16:54;;;;;;;12.63;2.63;;;17.40;99.90;;;;;;5069056;28;20129;-83
2022/05/21 09:18:02;;;;;;;14.25;2.75;;;17.20;99.90;;;;;;5068240;28;20091;-84
2022/05/21 09:20:32;;;;;;;14.23;2.78;;;17.10;99.90;;;;;;5069885;28;20133;-84
2022/05/21 09:23:00;;;;;;;19.15;2.47;;;16.90;99.90;;;;;;5070212;28;20056;-84
2022/05/21 09:25:26;;;;;;;15.30;2.30;;;16.80;99.90;;;;;;5068568;28;20048;-83
2022/05/21 09:28:04;;;;;;;12.82;2.45;;;16.70;99.90;;;;;;5069651;28;20052;-83
2022/05/21 09:30:35;;;;;;;15.95;2.83;;;16.60;99.90;;;;;;5069220;28;20127;-83
2022/05/21 09:33:22;;;;;;;10.68;1.90;;;16.60;99.90;;;;;;5069806;28;20044;-83
2022/05/21 09:35:53;;;;;;;17.45;1.90;;;16.50;99.90;;;;;;5069540;28;20124;-83
2022/05/21 09:38:30;;;;;;;13.70;2.58;;;16.40;99.90;;;;;;5068497;28;20047;-84
2022/05/21 09:41:08;;;;;;;13.50;2.30;;;16.50;99.90;;;;;;5085631;28;20128;-83
2022/05/21 09:46:27;;;;;;;12.80;1.90;;;16.60;99.90;;;;;;5067377;28;20072;-83
2022/05/21 09:49:11;;;;;;;18.02;2.60;;;16.70;99.90;;;;;;5070609;28;20044;-83
2022/05/21 09:51:38;;;;;;;13.07;2.30;;;16.80;99.90;;;;;;5072229;28;20040;-83
2022/05/21 09:54:19;;;;;;;12.88;2.45;;;16.80;99.90;;;;;;5097070;28;20190;-83
2022/05/21 09:56:52;;;;;;;10.05;1.80;;;16.70;99.90;;;;;;5088010;28;20118;-83
2022/05/21 09:59:21;;;;;;;13.90;2.10;;;16.90;99.90;;;;;;5086898;28;20153;-84
2022/05/21 10:01:49;;;;;;;8.65;1.90;;;17.20;99.90;;;;;;5088013;28;20063;-84
2022/05/21 10:04:27;;;;;;;11.77;1.90;;;17.60;99.90;;;;;;5087834;28;20126;-84
2022/05/21 10:07:13;;;;;;;9.38;2.20;;;17.60;99.90;;;;;;5081436;28;20500;-84
2022/05/21 10:12:38;;;;;;;9.13;1.50;;;17.20;99.90;;;;;;5087712;28;20083;-83
2022/05/21 10:15:08;;;;;;;18.60;2.13;;;17.30;99.90;;;;;;5086925;28;20040;-83
2022/05/21 10:17:40;;;;;;;14.07;2.20;;;17.40;99.90;;;;;;5071141;28;20048;-83
2022/05/21 10:20:15;;;;;;;11.20;1.95;;;17.50;99.90;;;;;;5087673;28;20051;-83
2022/05/21 10:23:06;;;;;;;13.65;2.65;;;17.60;99.90;;;;;;5069973;28;20410;-83
2022/05/21 10:25:42;;;;;;;10.73;2.22;;;17.90;99.90;;;;;;5087927;28;20059;-83
2022/05/21 10:28:36;;;;;;;19.33;2.03;;;17.80;99.90;;;;;;5085840;28;20062;-83
2022/05/21 10:31:13;;;;;;;12.25;2.22;;;18.00;99.90;;;;;;5070847;28;20056;-82
2022/05/21 10:33:50;;;;;;;14.57;1.95;;;18.10;99.90;;;;;;5089296;28;20391;-82
2022/05/21 10:36:26;;;;;;;7.20;1.58;;;17.90;99.90;;;;;;5086599;28;20383;-83
2022/05/21 10:39:05;;;;;;;9.82;1.77;;;17.70;99.90;;;;;;5088246;28;20101;-83
2022/05/21 10:41:52;;;;;;;14.60;2.15;;;17.70;99.90;;;;;;5089441;28;20131;-83
2022/05/21 10:44:51;;;;;;;10.88;2.03;;;17.80;99.90;;;;;;5086932;28;20052;-83
2022/05/21 10:47:27;;;;;;;15.45;1.75;;;17.80;99.90;;;;;;5087093;28;20124;-83
2022/05/21 10:50:19;;;;;;;12.13;1.58;;;17.60;99.90;;;;;;5087181;28;20075;-84
2022/05/21 10:53:07;;;;;;;9.57;1.95;;;17.40;99.90;;;;;;5087327;28;20046;-83
2022/05/21 10:55:44;;;;;;;9.32;2.28;;;17.60;99.90;;;;;;5081662;28;20044;-83
2022/05/21 10:58:22;;;;;;;8.05;1.60;;;18.00;99.90;;;;;;5080530;28;20062;-83
2022/05/21 11:00:59;;;;;;;8.60;1.80;;;18.30;99.90;;;;;;5063353;28;20441;-82
2022/05/21 11:03:25;;;;;;;12.90;1.85;;;18.40;99.90;;;;;;5086508;28;20510;-83
2022/05/21 11:06:10;;;;;;;7.78;1.70;;;18.30;99.90;;;;;;5070692;28;20101;-83
2022/05/21 11:08:43;;;;;;;11.63;2.08;;;18.00;99.90;;;;;;5089898;28;20386;-83
2022/05/21 11:11:25;;;;;;;7.43;1.50;;;18.10;99.90;;;;;;5088160;28;20097;-83
2022/05/21 11:14:02;;;;;;;12.27;1.70;;;18.20;99.90;;;;;;5068357;28;20055;-83
2022/05/21 11:16:41;;;;;;;10.68;2.47;;;18.30;99.90;;;;;;5089699;28;20499;-82
2022/05/21 11:19:10;;;;;;;13.13;1.92;;;18.10;99.90;;;;;;5085791;28;20051;-83
2022/05/21 11:21:48;;;;;;;13.48;1.67;;;18.10;99.90;;;;;;5070532;28;20046;-83
2022/05/21 11:24:23;;;;;;;12.32;1.88;;;17.90;99.90;;;;;;5087312;28;20052;-83
2022/05/21 11:26:58;;;;;;;10.15;1.65;;;17.80;99.90;;;;;;5070307;28;20517;-81
2022/05/21 11:29:39;;;;;;;7.85;1.60;;;18.00;99.90;;;;;;5074747;28;20628;-82
2022/05/21 11:37:43;;;;;;;8.02;1.70;;;18.50;99.90;;;;;;5086500;28;20121;-83
2022/05/21 11:40:29;;;;;;;11.35;2.22;;;18.40;99.90;;;;;;5085876;28;20040;-83
2022/05/21 11:42:55;;;;;;;7.13;1.27;;;18.20;99.90;;;;;;5085439;28;20123;-82
2022/05/21 11:45:23;;;;;;;9.93;1.42;;;17.90;99.90;;;;;;5078166;28;20060;-84
2022/05/21 11:47:54;;;;;;;10.40;1.55;;;17.90;99.90;;;;;;5082121;28;20344;-83
2022/05/21 11:50:24;;;;;;;9.88;1.88;;;18.20;99.90;;;;;;5057782;28;20079;-84
2022/05/21 11:52:56;;;;;;;10.55;1.75;;;18.60;99.90;;;;;;5084177;28;20052;-84
2022/05/21 11:55:29;;;;;;;10.40;1.80;;;19.00;99.90;;;;;;5086328;28;20097;-84
2022/05/21 11:57:56;;;;;;;;;;;19.30;99.90;;;;;;5085622;28;20078;-84
2022/05/21 12:00:21;;;;;;;11.63;1.45;;;19.40;99.90;;;;;;5068491;28;19924;-80
2022/05/21 12:02:56;;;;;;;12.90;1.92;;;19.20;99.90;;;;;;5085772;28;20063;-82
2022/05/21 12:05:33;;;;;;;10.77;1.80;;;19.00;99.90;;;;;;5085537;28;20502;-82
2022/05/21 12:08:30;;;;;;;10.32;2.15;;;18.90;99.90;;;;;;5085393;28;20044;-82
2022/05/21 12:11:04;;;;;;;9.32;1.40;;;19.00;99.90;;;;;;5069521;28;20036;-83
2022/05/21 12:13:33;;;;;;;13.45;1.80;;;19.10;99.90;;;;;;5084284;28;20048;-83
2022/05/21 12:16:01;;;;;;;8.00;1.55;;;19.00;99.90;;;;;;5069633;28;20044;-83
2022/05/21 12:18:44;;;;;;;11.40;1.80;;;19.00;99.90;;;;;;5078305;28;20110;-84
2022/05/21 12:21:30;;;;;;;10.55;2.25;;;19.10;99.90;;;;;;5087590;28;20491;-89
2022/05/21 12:23:56;;;;;;;11.38;1.80;;;18.80;99.90;;;;;;5080220;28;20052;-88
2022/05/21 12:26:31;;;;;;;15.73;2.30;;;18.70;99.90;;;;;;5057369;28;20090;-85
2022/05/21 12:29:01;;;;;;;13.15;1.77;;;18.70;99.90;;;;;;5069094;28;20052;-86
2022/05/21 12:31:31;;;;;;;11.27;1.80;;;18.40;99.90;;;;;;5085338;28;20036;-80
2022/05/21 12:34:15;;;;;;;10.18;1.65;;;18.30;99.90;;;;;;5085576;28;20044;-82
2022/05/21 12:36:55;;;;;;;7.70;1.50;;;18.10;99.90;;;;;;5085339;28;20471;-82
2022/05/21 12:39:26;;;;;;;9.32;2.15;;;18.10;99.90;;;;;;5088503;28;20722;-83
2022/05/21 12:41:54;;;;;;;8.88;1.85;;;18.20;99.90;;;;;;5072163;28;20508;-82
2022/05/21 12:44:38;;;;;;;4.63;1.40;;;18.20;99.90;;;;;;5090673;28;20047;-83
2022/05/21 12:47:04;;;;;;;11.05;2.05;;;18.20;99.90;;;;;;5089468;28;20149;-83
2022/05/21 12:49:31;;;;;;;8.52;1.67;;;18.00;99.90;;;;;;5071903;28;20039;-84
2022/05/21 12:51:57;;;;;;;10.40;1.38;;;17.80;99.90;;;;;;5073329;28;20054;-83
2022/05/21 12:54:28;;;;;;;12.30;1.40;;;17.70;99.90;;;;;;5089165;28;20429;-83
2022/05/21 12:56:55;;;;;;;5.43;1.10;;;17.70;99.90;;;;;;5087492;28;20097;-85
2022/05/21 12:59:27;;;;;;;9.02;1.65;;;17.90;99.90;;;;;;5071872;28;20560;-87
2022/05/21 13:02:01;;;;;;;11.48;1.52;;;18.10;99.90;;;;;;5089649;28;20181;-84
2022/05/21 13:04:33;;;;;;;9.15;1.45;;;18.30;99.90;;;;;;5088477;28;20048;-83
2022/05/21 13:07:03;;;;;;;6.85;1.10;;;18.60;99.90;;;;;;5089633;28;20067;-86
2022/05/21 13:09:30;;;;;;;8.10;1.40;;;18.70;99.90;;;;;;5072591;28;20047;-85
2022/05/21 13:11:57;;;;;;;5.95;1.20;;;18.90;99.90;;;;;;5074717;28;20049;-88
2022/05/21 13:14:31;;;;;;;9.55;1.25;;;19.10;99.90;;;;;;5071116;28;20157;-84
2022/05/21 13:16:59;;;;;;;12.52;1.55;;;19.10;99.90;;;;;;5070247;28;20126;-85
2022/05/21 13:19:56;;;;;;;9.27;1.17;;;19.00;99.90;;;;;;5072137;28;20121;-84
2022/05/21 13:22:58;;;;;;;9.82;1.67;;;19.00;99.90;;;;;;5069448;28;20079;-87
2022/05/21 13:25:24;;;;;;;37.60;2.22;;;18.90;99.90;;;;;;5087864;28;20067;-85
2022/05/21 13:27:54;;;;;;;12.40;2.17;;;18.80;99.90;;;;;;5088481;28;20048;-86
2022/05/21 13:30:29;;;;;;;11.70;1.95;;;18.60;99.90;;;;;;5088305;28;20398;-86